Time;durP1;ratioP1;P1;durP2;ratioP2;P2;SDS_P1;SDS_P2;PMS_P1;PMS_P2;Temp;Humidity;BMP_temperature;BMP_pressure;BME280_temperature;BME280_humidity;BME280_pressure;Samples;Min_cycle;Max_cycle;Signal;HPM_P1;HPM_P2
2023/12/07 00:02:06;;;;;;;10.10;7.47;;;;;;;4.17;nan;99916.88;5009828;28;20298;-77
2023/12/07 00:04:32;;;;;;;8.37;6.20;;;;;;;4.15;nan;99918.69;5013374;28;20206;-77
2023/12/07 00:06:57;;;;;;;8.47;7.13;;;;;;;4.09;nan;99917.13;5009295;28;20206;-76
2023/12/07 00:09:22;;;;;;;7.80;6.33;;;;;;;4.03;nan;99916.50;5010043;28;20214;-76
2023/12/07 00:11:48;;;;;;;8.47;6.70;;;;;;;3.98;nan;99914.88;5019837;28;20226;-76
2023/12/07 00:14:13;;;;;;;10.40;5.93;;;;;;;4.01;nan;99915.69;5017901;28;20820;-77
2023/12/07 00:16:39;;;;;;;7.23;6.30;;;;;;;4.01;nan;99911.31;5014474;28;20237;-77
2023/12/07 00:19:04;;;;;;;10.93;6.30;;;;;;;3.98;nan;99921.81;5015549;28;20202;-76
2023/12/07 00:21:30;;;;;;;11.40;6.67;;;;;;;3.88;nan;99915.22;5013103;28;20796;-76
2023/12/07 00:23:55;;;;;;;10.10;6.00;;;;;;;3.77;nan;99912.94;5016791;28;20233;-76
2023/12/07 00:26:20;;;;;;;8.83;6.60;;;;;;;3.72;nan;99914.81;5012845;28;20294;-76
2023/12/07 00:28:46;;;;;;;8.93;6.67;;;;;;;3.72;nan;99927.81;5014074;28;20726;-78
2023/12/07 00:31:11;;;;;;;8.30;5.77;;;;;;;3.71;nan;99919.19;5015328;28;20556;-77
2023/12/07 00:33:37;;;;;;;10.40;6.10;;;;;;;3.68;nan;99921.88;5015376;28;20256;-77
2023/12/07 00:36:03;;;;;;;10.63;6.63;;;;;;;3.68;nan;99932.25;5015288;28;20203;-76
2023/12/07 00:38:28;;;;;;;11.43;5.72;;;;;;;3.70;nan;99924.41;5015706;28;20183;-77
2023/12/07 00:40:54;;;;;;;10.13;6.70;;;;;;;3.71;nan;99919.19;5018151;28;20193;-77
2023/12/07 00:43:19;;;;;;;11.07;7.97;;;;;;;3.72;nan;99920.88;5012615;28;20301;-77
2023/12/07 00:45:45;;;;;;;8.83;6.70;;;;;;;3.73;nan;99920.00;5011228;28;20195;-77
2023/12/07 00:48:10;;;;;;;7.13;5.90;;;;;;;3.73;nan;99925.19;5016488;28;20613;-77
2023/12/07 00:50:36;;;;;;;6.67;5.03;;;;;;;3.71;nan;99926.13;5016345;28;20198;-77
2023/12/07 00:53:01;;;;;;;5.87;4.73;;;;;;;3.68;nan;99921.88;5022256;28;20309;-77
2023/12/07 00:55:26;;;;;;;7.93;5.90;;;;;;;3.66;nan;99934.06;4991765;28;20211;-77
2023/12/07 00:57:52;;;;;;;9.57;5.83;;;;;;;3.65;nan;99934.13;5015715;28;20199;-77
2023/12/07 01:00:18;;;;;;;9.70;5.70;;;;;;;3.63;nan;99930.72;5019383;28;20273;-77
2023/12/07 01:02:44;;;;;;;8.68;5.72;;;;;;;3.62;nan;99931.59;5019163;28;20845;-77
2023/12/07 01:05:09;;;;;;;8.53;6.00;;;;;;;3.61;nan;99927.28;5021725;28;20253;-77
2023/12/07 01:07:34;;;;;;;11.03;6.20;;;;;;;3.61;nan;99927.28;5019595;28;20233;-77
2023/12/07 01:10:00;;;;;;;7.90;5.23;;;;;;;3.59;nan;99926.47;5017956;28;20226;-76
2023/12/07 01:12:25;;;;;;;9.60;5.80;;;;;;;3.56;nan;99935.22;5020460;28;20230;-77
2023/12/07 01:14:51;;;;;;;8.40;5.53;;;;;;;3.55;nan;99936.13;5013111;28;20846;-77
2023/12/07 01:17:17;;;;;;;7.87;5.20;;;;;;;3.54;nan;99947.41;5012923;28;20235;-77
2023/12/07 01:19:43;;;;;;;8.00;4.65;;;;;;;3.51;nan;99929.31;5014720;28;20465;-77
2023/12/07 01:22:08;;;;;;;7.57;5.17;;;;;;;3.50;nan;99940.59;5020421;28;20203;-77
2023/12/07 01:24:34;;;;;;;5.57;4.33;;;;;;;3.48;nan;99935.47;5019384;28;20693;-77
2023/12/07 01:26:59;;;;;;;9.80;5.73;;;;;;;3.47;nan;99944.13;5020368;28;20240;-77
2023/12/07 01:29:24;;;;;;;8.00;5.23;;;;;;;3.45;nan;99940.72;5015619;28;20951;-77
2023/12/07 01:31:50;;;;;;;9.00;5.03;;;;;;;3.43;nan;99944.25;5018383;28;20218;-77
2023/12/07 01:34:18;;;;;;;7.00;4.93;;;;;;;3.41;nan;99939.13;5019329;28;20199;-77
2023/12/07 01:36:44;;;;;;;9.90;4.93;;;;;;;3.37;nan;99932.31;5020531;28;20217;-77
2023/12/07 01:39:12;;;;;;;6.10;4.40;;;;;;;3.34;nan;99932.41;5014861;28;20209;-77
2023/12/07 01:41:39;;;;;;;7.60;5.28;;;;;;;3.30;nan;99923.84;5013927;28;20213;-77
2023/12/07 01:44:04;;;;;;;5.47;3.60;;;;;;;3.24;nan;99923.16;5017458;28;20286;-77
2023/12/07 01:46:30;;;;;;;6.93;3.90;;;;;;;3.14;nan;99927.78;5015903;28;20257;-77
2023/12/07 01:48:55;;;;;;;7.33;5.23;;;;;;;3.06;nan;99927.16;5010808;28;20982;-77
2023/12/07 01:51:21;;;;;;;10.50;5.70;;;;;;;2.99;nan;99934.25;5013409;28;20497;-77
2023/12/07 01:53:48;;;;;;;8.27;5.37;;;;;;;2.90;nan;99931.91;5022897;28;20200;-77
2023/12/07 01:56:13;;;;;;;10.77;5.15;;;;;;;2.83;nan;99936.38;5015874;28;20305;-77
2023/12/07 01:58:39;;;;;;;6.20;3.10;;;;;;;2.79;nan;99932.19;5013934;28;20293;-77
2023/12/07 02:01:05;;;;;;;6.60;3.93;;;;;;;2.80;nan;99933.88;5016310;28;20191;-77
2023/12/07 02:03:31;;;;;;;6.65;4.47;;;;;;;2.82;nan;99941.63;5011180;28;20609;-78
2023/12/07 02:05:58;;;;;;;5.90;3.60;;;;;;;2.82;nan;99933.84;5011613;28;20191;-77
2023/12/07 02:08:23;;;;;;;4.88;3.65;;;;;;;2.82;nan;99932.09;5013517;28;20473;-77
2023/12/07 02:10:49;;;;;;;8.90;4.63;;;;;;;2.82;nan;99926.91;5016475;28;20209;-79
2023/12/07 02:13:14;;;;;;;6.53;3.77;;;;;;;2.82;nan;99928.66;5018054;28;20198;-78
2023/12/07 02:15:40;;;;;;;5.67;5.10;;;;;;;2.81;nan;99938.19;5021190;28;20521;-79
2023/12/07 02:18:20;;;;;;;7.47;4.33;;;;;;;2.79;nan;99934.78;5015680;28;20199;-79
2023/12/07 02:20:53;;;;;;;7.35;4.70;;;;;;;2.78;nan;99933.09;5019980;28;20283;-77
2023/12/07 02:23:19;;;;;;;6.30;4.60;;;;;;;2.73;nan;99936.66;5013550;28;20309;-78
2023/12/07 02:25:51;;;;;;;7.07;4.78;;;;;;;2.65;nan;99942.09;5015612;28;20697;-77
2023/12/07 02:28:17;;;;;;;4.53;4.03;;;;;;;2.55;nan;99951.84;5011943;28;20213;-77
2023/12/07 02:30:43;;;;;;;5.37;4.43;;;;;;;2.48;nan;99949.44;5010092;28;20198;-79
2023/12/07 02:33:08;;;;;;;5.43;3.40;;;;;;;2.39;nan;99955.69;5015309;28;20234;-78
2023/12/07 02:35:36;;;;;;;3.33;2.90;;;;;;;2.30;nan;99959.38;5013507;28;20496;-78
2023/12/07 02:38:02;;;;;;;3.92;3.47;;;;;;;2.20;nan;99956.13;5014360;28;20560;-79
2023/12/07 02:40:29;;;;;;;4.82;4.38;;;;;;;2.11;nan;99963.28;5016555;28;20608;-78
2023/12/07 02:42:56;;;;;;;4.22;3.85;;;;;;;2.07;nan;99956.47;5012752;28;20225;-78
2023/12/07 02:45:21;;;;;;;5.78;3.03;;;;;;;2.06;nan;99959.97;5015304;28;20608;-78
2023/12/07 02:47:47;;;;;;;4.20;3.33;;;;;;;2.05;nan;99958.22;5012215;28;20190;-78
2023/12/07 02:50:13;;;;;;;5.20;3.53;;;;;;;2.03;nan;99960.88;5013005;28;20540;-79
2023/12/07 02:52:39;;;;;;;6.20;4.05;;;;;;;2.02;nan;99955.72;5017413;28;20260;-78
2023/12/07 02:55:05;;;;;;;5.43;3.97;;;;;;;2.01;nan;99948.84;5014467;28;20683;-79
2023/12/07 02:57:30;;;;;;;9.38;5.03;;;;;;;1.99;nan;99949.72;5010129;28;20476;-79
2023/12/07 02:59:56;;;;;;;6.23;4.97;;;;;;;2.01;nan;99948.84;5019636;28;20221;-79
2023/12/07 03:02:22;;;;;;;4.53;3.43;;;;;;;2.02;nan;99948.78;5013449;28;20734;-78
2023/12/07 03:04:47;;;;;;;5.73;3.90;;;;;;;2.04;nan;99938.41;5017801;28;20683;-77
2023/12/07 03:07:13;;;;;;;7.90;4.73;;;;;;;2.04;nan;99938.41;5009068;28;20518;-78
2023/12/07 03:09:38;;;;;;;7.40;4.23;;;;;;;2.06;nan;99947.00;5010628;28;20237;-78
2023/12/07 03:12:04;;;;;;;5.77;3.87;;;;;;;2.05;nan;99940.09;5015472;28;20217;-79
2023/12/07 03:14:29;;;;;;;5.90;4.37;;;;;;;2.04;nan;99946.19;5017123;28;20190;-79
2023/12/07 03:16:55;;;;;;;6.23;3.33;;;;;;;2.01;nan;99939.31;5014571;28;20452;-78
2023/12/07 03:19:20;;;;;;;3.60;2.80;;;;;;;1.90;nan;99942.16;5018083;28;20191;-78
2023/12/07 03:21:45;;;;;;;3.70;2.50;;;;;;;1.76;nan;99949.41;5018897;28;20357;-78
2023/12/07 03:24:11;;;;;;;4.23;2.53;;;;;;;1.57;nan;99948.06;5015117;28;20206;-78
2023/12/07 03:26:37;;;;;;;4.40;2.30;;;;;;;1.38;nan;99947.59;5020956;28;20760;-79
2023/12/07 03:29:03;;;;;;;5.07;3.10;;;;;;;1.23;nan;99954.81;5012012;28;20198;-79
2023/12/07 03:31:29;;;;;;;5.10;3.70;;;;;;;1.10;nan;99963.69;5020577;28;20257;-78
2023/12/07 03:33:55;;;;;;;5.40;3.55;;;;;;;1.01;nan;99961.28;5015647;28;20194;-79
2023/12/07 03:36:21;;;;;;;4.00;2.72;;;;;;;0.95;nan;99962.25;5013770;28;20206;-78
2023/12/07 03:38:47;;;;;;;6.75;5.72;;;;;;;0.97;nan;99967.38;5012838;28;20445;-79
2023/12/07 03:41:13;;;;;;;7.20;5.47;;;;;;;1.01;nan;99966.47;5017616;28;20856;-78
2023/12/07 03:43:38;;;;;;;4.30;3.47;;;;;;;1.06;nan;99962.06;5016425;28;20491;-79
2023/12/07 03:46:04;;;;;;;5.90;3.83;;;;;;;1.11;nan;99960.25;5017269;28;20203;-78
2023/12/07 03:48:30;;;;;;;4.63;3.75;;;;;;;1.09;nan;99960.25;5011467;28;20214;-79
2023/12/07 03:50:56;;;;;;;7.83;4.87;;;;;;;1.08;nan;99961.16;5017800;28;20194;-78
2023/12/07 03:53:21;;;;;;;4.73;3.80;;;;;;;1.07;nan;99959.44;5012270;28;20213;-78
2023/12/07 03:55:46;;;;;;;5.03;3.93;;;;;;;1.08;nan;99970.63;5013525;28;20260;-78
2023/12/07 03:58:13;;;;;;;6.60;4.33;;;;;;;1.09;nan;99970.59;5023129;28;20221;-79
2023/12/07 04:00:39;;;;;;;5.32;4.50;;;;;;;1.13;nan;99965.38;5010887;28;20191;-78
2023/12/07 04:03:04;;;;;;;6.95;4.63;;;;;;;1.13;nan;99957.59;5019020;28;20756;-78
2023/12/07 04:05:30;;;;;;;6.07;4.20;;;;;;;1.09;nan;99957.66;5017593;28;20225;-78
2023/12/07 04:07:56;;;;;;;6.05;4.65;;;;;;;1.06;nan;99957.72;5015481;28;20503;-78
2023/12/07 04:10:21;;;;;;;7.30;4.47;;;;;;;1.05;nan;99961.22;5017249;28;20209;-78
2023/12/07 04:12:47;;;;;;;6.20;4.00;;;;;;;1.07;nan;99959.44;5015259;28;20203;-78
2023/12/07 04:15:12;;;;;;;5.07;3.83;;;;;;;1.09;nan;99951.66;5014674;28;20210;-78
2023/12/07 04:17:37;;;;;;;5.83;3.87;;;;;;;1.10;nan;99954.19;5015201;28;20198;-78
2023/12/07 04:20:04;;;;;;;5.77;4.30;;;;;;;1.09;nan;99955.09;5018250;28;20187;-79
2023/12/07 04:22:29;;;;;;;3.80;2.60;;;;;;;1.08;nan;99962.84;5021308;28;20718;-78
2023/12/07 04:24:54;;;;;;;7.13;4.30;;;;;;;1.07;nan;99958.56;5012004;28;20277;-79
2023/12/07 04:27:20;;;;;;;9.47;3.73;;;;;;;1.06;nan;99962.91;5017282;28;20973;-79
2023/12/07 04:29:45;;;;;;;6.10;3.70;;;;;;;1.06;nan;99955.16;5022649;28;20297;-79
2023/12/07 04:32:11;;;;;;;6.40;4.13;;;;;;;1.02;nan;99955.22;5017015;28;20228;-79
2023/12/07 04:34:36;;;;;;;4.60;3.70;;;;;;;1.02;nan;99953.47;5012017;28;20261;-79
2023/12/07 04:37:01;;;;;;;5.80;3.60;;;;;;;1.01;nan;99959.56;5008958;28;20678;-79
2023/12/07 04:39:27;;;;;;;8.93;4.77;;;;;;;1.03;nan;99951.78;5015561;28;20190;-78
2023/12/07 04:41:52;;;;;;;4.17;3.30;;;;;;;1.04;nan;99961.22;5016612;28;20210;-79
2023/12/07 04:44:19;;;;;;;5.00;3.87;;;;;;;1.05;nan;99956.03;5013637;28;20283;-79
2023/12/07 04:46:44;;;;;;;8.02;4.68;;;;;;;1.08;nan;99952.50;5007856;28;20197;-78
2023/12/07 04:49:09;;;;;;;3.53;3.23;;;;;;;1.08;nan;99948.22;5017100;28;20202;-78
2023/12/07 04:51:35;;;;;;;5.00;3.67;;;;;;;1.09;nan;99965.44;5014060;28;20219;-79
2023/12/07 04:54:00;;;;;;;8.67;4.03;;;;;;;1.07;nan;99959.44;5011496;28;20255;-78
2023/12/07 04:56:26;;;;;;;4.53;3.60;;;;;;;1.04;nan;99963.81;5016930;28;20290;-79
2023/12/07 04:58:51;;;;;;;5.10;3.57;;;;;;;1.01;nan;99962.13;5019414;28;20257;-79
2023/12/07 05:01:18;;;;;;;7.00;3.97;;;;;;;1.00;nan;99967.31;5021184;28;20202;-78
2023/12/07 05:03:44;;;;;;;4.60;3.65;;;;;;;0.97;nan;99973.41;5017178;28;20202;-79
2023/12/07 05:06:10;;;;;;;5.13;4.28;;;;;;;0.93;nan;99966.59;5019773;28;20202;-78
2023/12/07 05:08:35;;;;;;;2.63;2.43;;;;;;;0.89;nan;99967.53;5019946;28;20271;-78
2023/12/07 05:11:01;;;;;;;3.20;2.90;;;;;;;0.86;nan;99965.00;5020254;28;21027;-78
2023/12/07 05:13:26;;;;;;;2.70;2.40;;;;;;;0.80;nan;99955.63;5017174;28;20202;-78
2023/12/07 05:15:51;;;;;;;4.17;2.77;;;;;;;0.81;nan;99951.28;5021524;28;20233;-78
2023/12/07 05:18:17;;;;;;;3.83;2.60;;;;;;;0.77;nan;99947.94;5021723;28;20670;-78
2023/12/07 05:20:43;;;;;;;3.10;2.63;;;;;;;0.78;nan;99956.53;5020515;28;20309;-77
2023/12/07 05:23:08;;;;;;;4.32;2.85;;;;;;;0.77;nan;99954.84;5018454;28;20213;-78
2023/12/07 05:25:34;;;;;;;3.30;2.50;;;;;;;0.77;nan;99954.84;5021928;28;20535;-78
2023/12/07 05:27:59;;;;;;;2.80;2.03;;;;;;;0.76;nan;99950.56;5017755;28;20215;-78
2023/12/07 05:30:24;;;;;;;5.70;3.10;;;;;;;0.71;nan;99953.22;5019298;28;20202;-78
2023/12/07 05:32:50;;;;;;;4.27;3.10;;;;;;;0.66;nan;99953.28;5021080;28;20233;-78
2023/12/07 05:35:16;;;;;;;4.53;3.10;;;;;;;0.61;nan;99959.41;5017718;28;20252;-78
2023/12/07 05:37:41;;;;;;;5.90;3.90;;;;;;;0.56;nan;99962.06;5018722;28;20190;-78
2023/12/07 05:40:08;;;;;;;6.73;4.17;;;;;;;0.53;nan;99961.28;5014618;28;20830;-78
2023/12/07 05:42:33;;;;;;;3.35;2.80;;;;;;;0.46;nan;99968.31;5020754;28;20210;-78
2023/12/07 05:44:59;;;;;;;3.40;2.90;;;;;;;0.44;nan;99968.31;5022290;28;20190;-78
2023/12/07 05:47:25;;;;;;;4.53;3.17;;;;;;;0.42;nan;99964.06;5016253;28;20603;-78
2023/12/07 05:49:51;;;;;;;6.97;3.55;;;;;;;0.40;nan;99960.63;5014998;28;20999;-78
2023/12/07 05:52:16;;;;;;;3.80;3.30;;;;;;;0.36;nan;99962.41;5020277;28;20206;-78
2023/12/07 05:54:46;;;;;;;5.47;3.80;;;;;;;0.36;nan;99964.16;5016903;28;20566;-78
2023/12/07 05:57:13;;;;;;;4.18;3.25;;;;;;;0.38;nan;99960.69;5018413;28;20206;-78
2023/12/07 05:59:39;;;;;;;3.90;3.20;;;;;;;0.40;nan;99966.66;5018609;28;20261;-78
2023/12/07 06:02:04;;;;;;;4.00;3.70;;;;;;;0.44;nan;99964.88;5018486;28;20198;-78
2023/12/07 06:04:30;;;;;;;5.50;4.23;;;;;;;0.47;nan;99961.41;5020636;28;21457;-78
2023/12/07 06:06:56;;;;;;;4.90;3.27;;;;;;;0.47;nan;99972.59;5015819;28;20201;-78
2023/12/07 06:09:21;;;;;;;5.67;4.00;;;;;;;0.48;nan;99982.03;5017902;28;20218;-78
2023/12/07 06:11:46;;;;;;;4.77;3.00;;;;;;;0.48;nan;99984.63;5014880;28;20205;-78
2023/12/07 06:14:12;;;;;;;7.37;4.60;;;;;;;0.47;nan;99993.25;5015784;28;20202;-78
2023/12/07 06:16:37;;;;;;;4.87;4.27;;;;;;;0.47;nan;99984.66;5021825;28;20206;-78
2023/12/07 06:19:03;;;;;;;6.60;3.77;;;;;;;0.45;nan;99992.44;5011302;28;20708;-78
2023/12/07 06:21:30;;;;;;;6.20;4.07;;;;;;;0.46;nan;99988.97;5018886;28;21050;-78
2023/12/07 06:23:56;;;;;;;6.03;4.38;;;;;;;0.46;nan;99986.41;5017461;28;20462;-77
2023/12/07 06:26:21;;;;;;;5.20;4.70;;;;;;;0.47;nan;99988.09;5016475;28;20207;-79
2023/12/07 06:28:47;;;;;;;6.70;5.33;;;;;;;0.47;nan;99984.66;5016753;28;20862;-78
2023/12/07 06:31:15;;;;;;;7.50;5.43;;;;;;;0.47;nan;99980.34;5014778;28;20707;-78
2023/12/07 06:33:41;;;;;;;7.88;5.05;;;;;;;0.44;nan;99978.66;5014265;28;20461;-78
2023/12/07 06:36:06;;;;;;;4.27;3.87;;;;;;;0.41;nan;99978.72;5020453;28;20284;-78
2023/12/07 06:38:32;;;;;;;10.07;5.67;;;;;;;0.39;nan;99972.72;5019566;28;20195;-79
2023/12/07 06:40:57;;;;;;;10.87;5.70;;;;;;;0.37;nan;99974.44;5014890;28;20213;-79
2023/12/07 06:43:23;;;;;;;8.53;4.67;;;;;;;0.37;nan;99976.19;5016950;28;20788;-78
2023/12/07 06:45:49;;;;;;;6.90;5.17;;;;;;;0.35;nan;99978.81;5019653;28;20284;-78
2023/12/07 06:48:14;;;;;;;8.50;5.83;;;;;;;0.29;nan;99968.56;5013826;28;20206;-79
2023/12/07 06:50:39;;;;;;;9.20;5.77;;;;;;;0.22;nan;99965.22;5018411;28;21250;-78
2023/12/07 06:53:05;;;;;;;8.80;5.50;;;;;;;0.17;nan;99961.88;5017228;28;20202;-79
2023/12/07 06:55:30;;;;;;;9.90;6.80;;;;;;;0.11;nan;99964.56;5013538;28;20362;-79
2023/12/07 06:57:55;;;;;;;6.80;6.13;;;;;;;0.12;nan;99968.81;5018295;28;20229;-78
2023/12/07 07:00:21;;;;;;;12.70;6.50;;;;;;;0.13;nan;99956.75;5017607;28;20805;-79
2023/12/07 07:02:47;;;;;;;8.27;6.63;;;;;;;0.14;nan;99964.50;5015493;28;20214;-79
2023/12/07 07:05:12;;;;;;;9.30;7.27;;;;;;;0.15;nan;99955.84;5021423;28;21380;-79
2023/12/07 07:07:38;;;;;;;9.90;7.00;;;;;;;0.20;nan;99948.06;5018692;28;20244;-79
2023/12/07 07:10:04;;;;;;;10.68;6.43;;;;;;;0.24;nan;99951.41;5015299;28;20264;-79
2023/12/07 07:12:31;;;;;;;7.68;6.38;;;;;;;0.25;nan;99956.56;5017588;28;20249;-78
2023/12/07 07:14:56;;;;;;;6.73;4.83;;;;;;;0.26;nan;99957.44;5017693;28;20667;-78
2023/12/07 07:17:21;;;;;;;7.70;5.27;;;;;;;0.21;nan;99958.34;5019337;28;20202;-78
2023/12/07 07:19:47;;;;;;;6.03;5.30;;;;;;;0.18;nan;99963.56;5012883;28;20298;-78
2023/12/07 07:22:12;;;;;;;8.87;5.30;;;;;;;0.16;nan;99967.91;5014415;28;20228;-77
2023/12/07 07:24:38;;;;;;;7.67;4.60;;;;;;;0.14;nan;99963.66;5013273;28;20206;-78
2023/12/07 07:27:03;;;;;;;6.17;5.00;;;;;;;0.12;nan;99961.06;5019005;28;20198;-78
2023/12/07 07:29:29;;;;;;;8.57;6.33;;;;;;;0.13;nan;99962.78;5015755;28;20214;-78
2023/12/07 07:31:55;;;;;;;5.57;4.97;;;;;;;0.15;nan;99960.19;5014949;28;20736;-78
2023/12/07 07:34:21;;;;;;;7.65;6.15;;;;;;;0.17;nan;99955.84;5015384;28;20218;-79
2023/12/07 07:36:46;;;;;;;9.30;6.30;;;;;;;0.24;nan;99954.00;5016323;28;20190;-78
2023/12/07 07:39:13;;;;;;;8.77;6.93;;;;;;;0.26;nan;99939.34;5019273;28;20190;-78
2023/12/07 07:41:39;;;;;;;8.25;7.35;;;;;;;0.30;nan;99939.28;5015075;28;20218;-78
2023/12/07 07:44:05;;;;;;;8.07;7.10;;;;;;;0.33;nan;99936.63;5019791;28;20198;-78
2023/12/07 07:46:30;;;;;;;14.93;7.30;;;;;;;0.39;nan;99933.94;5020996;28;20264;-78
2023/12/07 07:48:56;;;;;;;11.07;7.47;;;;;;;0.48;nan;99935.50;5019075;28;20210;-78
2023/12/07 07:51:21;;;;;;;9.10;6.90;;;;;;;0.55;nan;99934.53;5017474;28;20197;-79
2023/12/07 07:53:46;;;;;;;9.03;7.40;;;;;;;0.60;nan;99924.97;5019886;28;20195;-78
2023/12/07 07:56:12;;;;;;;10.50;7.70;;;;;;;0.69;nan;99938.59;5016715;28;20320;-78
2023/12/07 07:58:37;;;;;;;10.67;6.97;;;;;;;0.71;nan;99944.63;5020363;28;20694;-79
2023/12/07 08:01:03;;;;;;;9.67;7.57;;;;;;;0.70;nan;99955.81;5024950;28;20199;-78
2023/12/07 08:03:28;;;;;;;19.23;8.87;;;;;;;0.65;nan;99955.91;5020649;28;20201;-78
2023/12/07 08:05:54;;;;;;;8.17;7.37;;;;;;;0.63;nan;99963.69;5021130;28;20200;-77
2023/12/07 08:08:19;;;;;;;11.00;6.77;;;;;;;0.66;nan;99967.94;5019295;28;20214;-77
2023/12/07 08:10:45;;;;;;;9.40;6.17;;;;;;;0.68;nan;99966.19;5017930;28;20194;-77
2023/12/07 08:13:10;;;;;;;10.10;7.30;;;;;;;0.72;nan;99960.09;5020835;28;20205;-77
2023/12/07 08:15:36;;;;;;;7.97;5.77;;;;;;;0.75;nan;99960.03;5020331;28;20329;-77
2023/12/07 08:18:02;;;;;;;7.37;5.03;;;;;;;0.77;nan;99957.41;5030477;28;20206;-77
2023/12/07 08:20:27;;;;;;;10.25;7.55;;;;;;;0.77;nan;99954.84;5020624;28;20202;-78
2023/12/07 08:22:52;;;;;;;7.63;6.10;;;;;;;0.76;nan;99947.97;5022089;28;20195;-77
2023/12/07 08:25:18;;;;;;;8.30;6.23;;;;;;;0.77;nan;99954.84;5024169;28;20206;-77
2023/12/07 08:27:45;;;;;;;10.03;6.13;;;;;;;0.81;nan;99948.72;5019722;28;20198;-77
2023/12/07 08:30:11;;;;;;;11.13;6.30;;;;;;;0.87;nan;99956.38;5018404;28;20613;-77
2023/12/07 08:32:38;;;;;;;11.32;7.70;;;;;;;0.98;nan;99961.34;5020512;28;20583;-77
2023/12/07 08:35:05;;;;;;;7.40;5.65;;;;;;;1.09;nan;99952.50;5020999;28;20190;-76
2023/12/07 08:37:33;;;;;;;9.77;6.00;;;;;;;1.30;nan;99953.81;5022534;28;20195;-77
2023/12/07 08:39:59;;;;;;;12.35;8.60;;;;;;;1.67;nan;99962.53;5023554;28;20247;-76
2023/12/07 08:42:26;;;;;;;13.00;7.50;;;;;;;2.08;nan;99959.03;5015963;28;20200;-77
2023/12/07 08:44:52;;;;;;;7.78;6.95;;;;;;;2.50;nan;99953.69;5022664;28;20219;-77
2023/12/07 08:47:17;;;;;;;7.30;6.60;;;;;;;2.74;nan;99953.97;5018962;28;20218;-77
2023/12/07 08:49:43;;;;;;;8.17;6.30;;;;;;;2.95;nan;99948.19;5018344;28;20305;-78
2023/12/07 08:52:08;;;;;;;9.80;6.87;;;;;;;3.24;nan;99955.19;5020157;28;20893;-77
2023/12/07 08:54:33;;;;;;;11.30;8.03;;;;;;;3.46;nan;99946.78;5018945;28;20199;-77
2023/12/07 08:56:59;;;;;;;13.77;9.63;;;;;;;3.60;nan;99944.63;5018817;28;20835;-77
2023/12/07 08:59:24;;;;;;;17.03;12.20;;;;;;;3.81;nan;99934.47;5014767;28;20194;-77
2023/12/07 09:01:50;;;;;;;18.27;11.70;;;;;;;4.17;nan;99927.28;5024738;28;20695;-77
2023/12/07 09:04:15;;;;;;;15.80;10.53;;;;;;;4.73;nan;99928.91;5021458;28;20686;-77
2023/12/07 09:06:40;;;;;;;14.00;9.80;;;;;;;5.07;nan;99923.34;5018065;28;20228;-77
2023/12/07 09:09:06;;;;;;;9.60;8.00;;;;;;;5.24;nan;99925.34;5020651;28;20207;-77
2023/12/07 09:11:31;;;;;;;9.77;6.67;;;;;;;5.39;nan;99924.78;5018334;28;20210;-77
2023/12/07 09:13:57;;;;;;;6.23;5.63;;;;;;;5.27;nan;99915.66;5018753;28;20245;-77
2023/12/07 09:16:23;;;;;;;10.77;6.55;;;;;;;5.02;nan;99920.06;5019712;28;20194;-77
2023/12/07 09:18:49;;;;;;;10.90;6.97;;;;;;;4.69;nan;99919.50;5016071;28;20202;-77
2023/12/07 09:21:14;;;;;;;9.47;6.67;;;;;;;4.51;nan;99924.44;5021666;28;20495;-77
2023/12/07 09:23:40;;;;;;;10.50;6.80;;;;;;;4.41;nan;99918.69;5013823;28;20267;-77
2023/12/07 09:26:05;;;;;;;11.47;6.90;;;;;;;4.22;nan;99928.00;5015875;28;21044;-77
2023/12/07 09:28:33;;;;;;;8.87;7.60;;;;;;;3.96;nan;99931.41;5018735;28;20218;-77
2023/12/07 09:30:58;;;;;;;13.43;7.40;;;;;;;3.91;nan;99921.16;5020002;28;20679;-77
2023/12/07 09:33:23;;;;;;;12.13;5.97;;;;;;;4.12;nan;99921.38;5018345;28;20247;-77
2023/12/07 09:35:49;;;;;;;14.70;8.60;;;;;;;4.36;nan;99912.78;5018013;28;20203;-76
2023/12/07 09:38:14;;;;;;;11.67;8.93;;;;;;;4.48;nan;99914.09;5020001;28;20675;-76
2023/12/07 09:40:40;;;;;;;12.40;6.20;;;;;;;4.70;nan;99909.03;5018246;28;20203;-77
2023/12/07 09:43:05;;;;;;;13.40;7.40;;;;;;;5.21;nan;99896.78;5022540;28;20292;-77
2023/12/07 09:45:31;;;;;;;10.57;6.20;;;;;;;5.63;nan;99902.16;5017701;28;20198;-76
2023/12/07 09:47:57;;;;;;;8.43;6.07;;;;;;;6.02;nan;99898.06;5017863;28;20562;-77
2023/12/07 09:50:24;;;;;;;8.98;6.78;;;;;;;6.79;nan;99880.03;5023820;28;20891;-77
2023/12/07 09:52:51;;;;;;;8.75;6.10;;;;;;;7.71;nan;99881.09;5016887;28;20260;-77
2023/12/07 09:55:18;;;;;;;12.05;7.72;;;;;;;8.45;nan;99883.59;5019900;28;20209;-76
2023/12/07 09:57:44;;;;;;;12.73;8.80;;;;;;;9.07;nan;99890.00;5014099;28;20192;-77
2023/12/07 10:00:14;;;;;;;11.90;7.60;;;;;;;9.50;nan;99885.06;5020660;28;20202;-77
2023/12/07 10:02:41;;;;;;;14.75;6.78;;;;;;;9.45;nan;99886.22;5017975;28;20453;-77
2023/12/07 10:05:10;;;;;;;15.15;8.95;;;;;;;8.90;nan;99878.69;5019155;28;20209;-77
2023/12/07 10:07:40;;;;;;;12.48;7.70;;;;;;;8.06;nan;99873.31;5017525;28;20266;-77
2023/12/07 10:10:05;;;;;;;10.90;7.70;;;;;;;7.25;nan;99889.28;5019227;28;20365;-77
2023/12/07 10:12:34;;;;;;;14.40;8.70;;;;;;;6.49;nan;99885.66;5022790;28;20301;-77
2023/12/07 10:15:02;;;;;;;15.35;8.93;;;;;;;5.82;nan;99885.78;5021312;28;20760;-77
2023/12/07 10:17:47;;;;;;;13.05;7.03;;;;;;;5.24;nan;99886.28;5019361;28;20214;-77
2023/12/07 10:20:15;;;;;;;9.35;5.88;;;;;;;4.79;nan;99872.28;5019250;28;20198;-77
2023/12/07 10:22:41;;;;;;;15.38;8.95;;;;;;;4.42;nan;99878.75;5017739;28;20233;-77
2023/12/07 10:25:09;;;;;;;12.90;8.57;;;;;;;4.14;nan;99873.63;5020026;28;20294;-77
2023/12/07 10:27:35;;;;;;;12.50;8.23;;;;;;;3.93;nan;99880.38;5018535;28;20203;-77
2023/12/07 10:30:00;;;;;;;16.40;8.57;;;;;;;3.74;nan;99874.91;5019117;28;20226;-77
2023/12/07 10:32:26;;;;;;;13.70;8.90;;;;;;;3.49;nan;99876.59;5020382;28;20326;-77
2023/12/07 10:34:52;;;;;;;12.37;8.50;;;;;;;3.27;nan;99874.63;5020473;28;20194;-77
2023/12/07 10:37:18;;;;;;;15.75;9.57;;;;;;;3.13;nan;99870.72;5019607;28;20166;-77
2023/12/07 10:39:43;;;;;;;16.13;9.63;;;;;;;3.03;nan;99863.22;5007988;28;20664;-77
2023/12/07 10:42:11;;;;;;;19.27;9.67;;;;;;;3.04;nan;99857.13;5010420;28;20321;-77
2023/12/07 10:44:41;;;;;;;19.45;9.82;;;;;;;3.09;nan;99854.38;5009736;28;20580;-77
2023/12/07 10:47:10;;;;;;;23.35;13.32;;;;;;;3.12;nan;99848.25;5004971;28;20198;-77
2023/12/07 10:49:40;;;;;;;17.80;11.10;;;;;;;3.04;nan;99844.13;5003374;28;20230;-77
2023/12/07 10:52:13;;;;;;;22.98;14.13;;;;;;;2.96;nan;99838.31;5004640;28;20272;-77
2023/12/07 10:54:53;;;;;;;23.17;12.75;;;;;;;3.03;nan;99829.47;4999909;28;20245;-77
2023/12/07 10:57:21;;;;;;;18.73;11.20;;;;;;;3.20;nan;99828.13;4998665;28;20282;-77
2023/12/07 10:59:50;;;;;;;17.17;10.18;;;;;;;3.29;nan;99809.66;4999625;28;21058;-77
2023/12/07 11:02:16;;;;;;;19.05;9.80;;;;;;;3.32;nan;99804.38;5000814;28;20311;-77
2023/12/07 11:04:43;;;;;;;17.20;10.48;;;;;;;3.43;nan;99799.72;5001151;28;20194;-76
2023/12/07 11:07:20;;;;;;;18.00;10.90;;;;;;;3.57;nan;99786.28;5001964;28;20202;-76
2023/12/07 11:09:59;;;;;;;20.52;10.73;;;;;;;3.75;nan;99777.03;5014322;28;20232;-76
2023/12/07 11:12:41;;;;;;;13.95;8.40;;;;;;;3.89;nan;99767.06;5018780;28;20212;-76
2023/12/07 11:15:08;;;;;;;13.45;8.52;;;;;;;3.94;nan;99759.06;5012063;28;21008;-77
2023/12/07 11:17:54;;;;;;;11.98;7.85;;;;;;;3.82;nan;99754.31;5012194;28;20709;-76
2023/12/07 11:20:47;;;;;;;13.48;8.73;;;;;;;3.75;nan;99748.44;5008157;28;20254;-76
2023/12/07 11:23:19;;;;;;;11.00;7.30;;;;;;;3.76;nan;99742.38;5003459;28;20918;-76
2023/12/07 11:25:46;;;;;;;13.98;7.32;;;;;;;3.79;nan;99742.28;5003292;28;20361;-76
2023/12/07 11:28:13;;;;;;;11.15;7.03;;;;;;;3.84;nan;99739.53;5006444;28;20277;-76
2023/12/07 11:30:42;;;;;;;13.40;8.95;;;;;;;3.89;nan;99732.41;5003894;28;20313;-76
2023/12/07 11:33:09;;;;;;;15.30;10.48;;;;;;;3.95;nan;99727.84;5004884;28;20614;-76
2023/12/07 11:36:08;;;;;;;16.80;9.32;;;;;;;4.01;nan;99724.19;5003602;28;20183;-76
2023/12/07 11:38:36;;;;;;;12.65;9.13;;;;;;;4.06;nan;99706.69;5009808;28;20199;-76
2023/12/07 11:41:02;;;;;;;13.40;8.25;;;;;;;4.08;nan;99699.69;5005719;28;21220;-77
2023/12/07 11:43:35;;;;;;;13.25;9.88;;;;;;;4.13;nan;99695.19;5013740;28;20297;-77
2023/12/07 11:46:01;;;;;;;11.50;8.57;;;;;;;4.13;nan;99705.56;5012178;28;20202;-78
2023/12/07 11:48:27;;;;;;;12.45;8.95;;;;;;;4.17;nan;99699.34;5008904;28;20568;-77
2023/12/07 11:51:04;;;;;;;12.87;7.57;;;;;;;4.18;nan;99688.03;5018083;28;20333;-74
2023/12/07 11:53:33;;;;;;;15.18;8.93;;;;;;;4.19;nan;99684.56;5012984;28;20452;-78